Time;durP1;ratioP1;P1;durP2;ratioP2;P2;SDS_P1;SDS_P2;PMS_P1;PMS_P2;Temp;Humidity;BMP_temperature;BMP_pressure;BME280_temperature;BME280_humidity;BME280_pressure;Samples;Min_cycle;Max_cycle;Signal;HPM_P1;HPM_P2
2023/11/17 00:01:47;;;;;;;0.40;0.35;;;;;;;8.88;100.00;95850.53;5061370;28;20036;-72
2023/11/17 00:04:14;;;;;;;0.50;0.50;;;;;;;8.91;100.00;95855.25;5055046;28;20044;-73
2023/11/17 00:06:40;;;;;;;0.55;0.50;;;;;;;8.93;100.00;95842.00;5059728;28;20552;-72
2023/11/17 00:09:10;;;;;;;0.35;0.32;;;;;;;9.00;100.00;95860.38;5055594;28;20135;-74
2023/11/17 00:11:36;;;;;;;0.93;0.52;;;;;;;9.04;100.00;95858.50;5045641;28;20132;-74
2023/11/17 00:14:02;;;;;;;0.47;0.40;;;;;;;9.04;100.00;95874.06;5070160;28;20552;-73
2023/11/17 00:16:27;;;;;;;0.40;0.40;;;;;;;8.99;100.00;95886.91;5057555;28;20075;-74
2023/11/17 00:18:53;;;;;;;2.40;0.40;;;;;;;8.97;100.00;95878.31;5062153;28;20064;-74
2023/11/17 00:21:18;;;;;;;0.38;0.38;;;;;;;8.93;100.00;95909.47;5061780;28;20048;-75
2023/11/17 00:23:45;;;;;;;0.47;0.47;;;;;;;8.76;100.00;95911.66;5065282;28;20487;-74
2023/11/17 00:26:11;;;;;;;0.73;0.50;;;;;;;8.68;100.00;95928.31;5043590;28;20068;-74
2023/11/17 00:28:39;;;;;;;0.70;0.45;;;;;;;8.53;100.00;95947.25;5075119;28;20064;-73
2023/11/17 00:31:14;;;;;;;1.77;0.40;;;;;;;8.45;100.00;95945.63;5078205;28;20036;-73
2023/11/17 00:33:40;;;;;;;0.50;0.50;;;;;;;8.31;100.00;95976.19;5046851;28;20102;-74
2023/11/17 00:36:08;;;;;;;0.47;0.47;;;;;;;8.25;100.00;95983.16;5049343;28;20047;-74
2023/11/17 00:38:36;;;;;;;0.52;0.40;;;;;;;8.15;100.00;95981.81;5060101;28;20043;-74
2023/11/17 00:41:02;;;;;;;1.95;0.50;;;;;;;8.09;100.00;95985.25;5045453;28;20056;-75
2023/11/17 00:43:28;;;;;;;0.40;0.40;;;;;;;8.00;100.00;96034.59;5057010;28;20045;-74
2023/11/17 00:46:00;;;;;;;1.42;0.65;;;;;;;7.87;100.00;96035.94;5072020;28;20132;-72
2023/11/17 00:48:29;;;;;;;0.55;0.50;;;;;;;7.74;100.00;96040.78;5070511;28;20098;-73
2023/11/17 00:50:55;;;;;;;2.00;0.55;;;;;;;7.68;100.00;96047.72;5081210;28;20170;-74
2023/11/17 00:53:26;;;;;;;0.85;0.50;;;;;;;7.63;100.00;96035.16;5074614;28;20028;-73
2023/11/17 00:56:04;;;;;;;0.88;0.50;;;;;;;7.63;100.00;96078.75;5055540;28;20036;-73
2023/11/17 00:58:30;;;;;;;2.33;0.50;;;;;;;7.63;100.00;96090.47;5059302;28;20102;-73
2023/11/17 01:00:59;;;;;;;1.20;0.50;;;;;;;7.64;100.00;96108.38;5059982;28;20131;-73
2023/11/17 01:03:24;;;;;;;0.57;0.50;;;;;;;7.55;100.00;96129.63;5055436;28;20044;-74
2023/11/17 01:05:51;;;;;;;2.15;0.50;;;;;;;7.45;100.00;96149.28;5059354;28;20649;-74
2023/11/17 01:08:19;;;;;;;0.65;0.43;;;;;;;7.41;100.00;96154.66;5052248;28;20443;-74
2023/11/17 01:10:45;;;;;;;0.73;0.60;;;;;;;7.40;100.00;96179.53;5050910;28;20033;-71
2023/11/17 01:13:10;;;;;;;0.50;0.50;;;;;;;7.30;100.00;96183.63;5046018;28;20040;-71
2023/11/17 01:15:36;;;;;;;3.65;0.50;;;;;;;7.25;100.00;96192.88;5049119;28;20132;-72
2023/11/17 01:18:07;;;;;;;2.15;0.52;;;;;;;7.17;100.00;96207.50;5049083;28;20043;-72
2023/11/17 01:20:36;;;;;;;3.38;1.17;;;;;;;7.23;100.00;96225.13;5051191;28;20110;-73
2023/11/17 01:23:02;;;;;;;1.15;0.93;;;;;;;7.23;100.00;96229.78;5050193;28;20041;-71
2023/11/17 01:25:34;;;;;;;5.93;3.33;;;;;;;7.21;100.00;96246.47;5056777;28;20042;-72
2023/11/17 01:28:01;;;;;;;1.15;0.98;;;;;;;7.25;100.00;96257.47;5059338;28;20534;-74
2023/11/17 01:30:28;;;;;;;1.60;1.50;;;;;;;7.23;100.00;96262.47;5053520;28;20047;-72
2023/11/17 01:32:54;;;;;;;1.38;1.05;;;;;;;7.40;100.00;96291.25;5058683;28;20135;-72
2023/11/17 01:35:19;;;;;;;0.80;0.80;;;;;;;7.43;100.00;96302.22;5053778;28;20136;-74
2023/11/17 01:37:45;;;;;;;0.63;0.63;;;;;;;7.34;100.00;96312.53;5058549;28;20456;-74
2023/11/17 01:40:11;;;;;;;0.90;0.90;;;;;;;7.37;100.00;96321.94;5039084;28;20095;-72
2023/11/17 01:42:39;;;;;;;0.90;0.90;;;;;;;7.24;100.00;96327.50;5056487;28;20402;-74
2023/11/17 01:45:08;;;;;;;0.50;0.50;;;;;;;7.27;100.00;96340.41;5053895;28;20037;-73
2023/11/17 01:47:39;;;;;;;1.08;1.00;;;;;;;7.32;100.00;96352.19;5060706;28;20046;-73
2023/11/17 01:50:09;;;;;;;2.63;1.60;;;;;;;7.38;100.00;96367.09;5039763;28;20073;-71
2023/11/17 01:52:35;;;;;;;2.75;0.90;;;;;;;7.20;100.00;96370.22;5058148;28;20117;-72
2023/11/17 01:55:05;;;;;;;1.70;1.55;;;;;;;7.17;100.00;96373.63;5058129;28;20037;-72
2023/11/17 01:57:37;;;;;;;0.60;0.60;;;;;;;7.14;100.00;96368.09;5058416;28;20044;-72
2023/11/17 02:00:13;;;;;;;2.55;1.40;;;;;;;7.00;100.00;96393.81;5056558;28;20540;-72
2023/11/17 02:02:44;;;;;;;0.70;0.70;;;;;;;6.96;100.00;96397.63;5049574;28;20436;-73
2023/11/17 02:05:12;;;;;;;1.00;0.90;;;;;;;6.97;100.00;96420.97;5055449;28;20036;-74
2023/11/17 02:07:53;;;;;;;0.65;0.65;;;;;;;6.75;100.00;96428.56;5049738;28;20044;-72
2023/11/17 02:10:30;;;;;;;0.45;0.45;;;;;;;6.79;100.00;96431.38;5055007;28;20077;-72
2023/11/17 02:13:06;;;;;;;0.60;0.60;;;;;;;6.64;100.00;96441.88;5058555;28;20436;-73
2023/11/17 02:15:34;;;;;;;0.60;0.60;;;;;;;6.60;100.00;96446.44;5057547;28;20049;-71
2023/11/17 02:18:04;;;;;;;0.60;0.60;;;;;;;6.44;100.00;96451.81;5059024;28;20513;-72
2023/11/17 02:20:34;;;;;;;0.90;0.90;;;;;;;6.44;100.00;96453.75;5057664;28;20394;-72
2023/11/17 02:23:10;;;;;;;2.33;1.30;;;;;;;6.59;100.00;96469.38;5058720;28;20036;-74
2023/11/17 02:26:13;;;;;;;0.80;0.80;;;;;;;6.60;100.00;96472.88;5060062;28;20127;-74
2023/11/17 02:28:50;;;;;;;0.90;0.90;;;;;;;6.63;100.00;96483.06;5059246;28;20102;-73
2023/11/17 02:31:17;;;;;;;1.73;1.63;;;;;;;6.66;100.00;96479.66;5046184;28;20124;-74
2023/11/17 02:33:48;;;;;;;1.20;1.10;;;;;;;6.52;100.00;96480.06;5059047;28;20044;-72
2023/11/17 02:36:18;;;;;;;0.60;0.60;;;;;;;6.56;100.00;96489.09;5057226;28;20043;-74
2023/11/17 02:39:05;;;;;;;0.80;0.80;;;;;;;6.46;100.00;96497.75;5062631;28;20366;-73
2023/11/17 02:41:32;;;;;;;1.13;1.02;;;;;;;6.52;100.00;96504.53;5065378;28;20070;-74
2023/11/17 02:44:11;;;;;;;1.55;1.45;;;;;;;6.49;100.00;96510.66;5067037;28;20063;-72
2023/11/17 02:46:37;;;;;;;0.70;0.70;;;;;;;6.49;100.00;96513.38;5082198;28;20288;-72
2023/11/17 02:49:17;;;;;;;1.25;0.60;;;;;;;6.37;100.00;96510.69;5066900;28;20072;-73
2023/11/17 02:51:50;;;;;;;1.80;0.60;;;;;;;6.43;100.00;96533.81;5063197;28;20064;-72
2023/11/17 02:54:16;;;;;;;1.00;0.90;;;;;;;6.41;100.00;96536.88;5057744;28;20040;-73
2023/11/17 02:56:42;;;;;;;0.77;0.77;;;;;;;6.28;100.00;96541.56;5054534;28;20041;-73
2023/11/17 02:59:11;;;;;;;0.80;0.80;;;;;;;6.25;100.00;96544.16;5059484;28;20128;-73
2023/11/17 03:01:38;;;;;;;0.70;0.70;;;;;;;6.22;100.00;96547.56;5061786;28;20063;-73
2023/11/17 03:04:12;;;;;;;2.28;0.73;;;;;;;6.28;100.00;96568.75;5065810;28;20071;-72
2023/11/17 03:06:38;;;;;;;0.60;0.60;;;;;;;6.32;100.00;96572.38;5073464;28;20044;-73
2023/11/17 03:09:05;;;;;;;0.50;0.50;;;;;;;6.29;100.00;96575.75;5075329;28;20051;-73
2023/11/17 03:11:30;;;;;;;0.60;0.60;;;;;;;6.17;100.00;96575.75;5073543;28;20548;-71
2023/11/17 03:13:56;;;;;;;1.00;0.80;;;;;;;6.08;100.00;96578.59;5055935;28;20047;-72
2023/11/17 03:16:24;;;;;;;0.55;0.55;;;;;;;6.17;100.00;96585.84;5069391;28;22405;-74
2023/11/17 03:18:52;;;;;;;0.60;0.60;;;;;;;6.19;100.00;96595.25;5075499;28;20529;-72
2023/11/17 03:21:19;;;;;;;0.75;0.70;;;;;;;6.12;100.00;96600.47;5052441;28;20685;-75
2023/11/17 03:23:45;;;;;;;0.60;0.60;;;;;;;6.04;100.00;96593.22;5072084;28;20044;-73
2023/11/17 03:26:11;;;;;;;0.50;0.50;;;;;;;6.04;100.00;96598.66;5079261;28;20102;-74
2023/11/17 03:28:37;;;;;;;0.50;0.50;;;;;;;5.89;100.00;96605.53;5082342;28;20055;-72
2023/11/17 03:31:04;;;;;;;0.70;0.52;;;;;;;5.87;100.00;96605.88;5079518;28;20036;-73
2023/11/17 03:33:30;;;;;;;0.70;0.70;;;;;;;5.81;100.00;96606.41;5069547;28;20036;-75
2023/11/17 03:35:55;;;;;;;1.80;0.50;;;;;;;5.82;100.00;96611.53;5064953;28;20091;-74
2023/11/17 03:38:21;;;;;;;0.90;0.90;;;;;;;5.82;100.00;96616.97;5061677;28;20061;-74
2023/11/17 03:40:47;;;;;;;0.60;0.60;;;;;;;5.81;100.00;96612.63;5064207;28;20049;-73
2023/11/17 03:43:13;;;;;;;1.25;0.60;;;;;;;5.82;100.00;96610.72;5057792;28;20043;-72
2023/11/17 03:45:43;;;;;;;0.60;0.60;;;;;;;5.82;100.00;96619.69;5057020;28;20071;-74
2023/11/17 03:48:08;;;;;;;2.50;0.70;;;;;;;5.92;100.00;96615.72;5058603;28;20506;-74
2023/11/17 03:50:35;;;;;;;0.70;0.70;;;;;;;5.97;100.00;96617.47;5063573;28;20081;-74
2023/11/17 03:53:00;;;;;;;0.50;0.50;;;;;;;5.93;100.00;96631.69;5043982;28;20044;-73
2023/11/17 03:55:27;;;;;;;0.60;0.50;;;;;;;5.91;100.00;96644.81;5057503;28;20071;-73
2023/11/17 03:57:52;;;;;;;0.70;0.70;;;;;;;5.90;100.00;96643.22;5061558;28;20398;-74
2023/11/17 04:00:22;;;;;;;1.00;1.00;;;;;;;5.94;100.00;96637.91;5048543;28;20033;-73
2023/11/17 04:02:52;;;;;;;0.80;0.70;;;;;;;5.89;100.00;96649.81;5080989;28;20081;-72
2023/11/17 04:05:20;;;;;;;0.60;0.60;;;;;;;5.90;100.00;96650.59;5045091;28;20117;-72
2023/11/17 04:07:48;;;;;;;0.50;0.50;;;;;;;5.81;100.00;96649.91;5061819;28;20040;-73
2023/11/17 04:10:18;;;;;;;0.40;0.40;;;;;;;5.72;100.00;96656.22;5060170;28;20040;-72
2023/11/17 04:12:46;;;;;;;0.60;0.60;;;;;;;5.81;100.00;96655.34;5061104;28;20090;-72
2023/11/17 04:15:12;;;;;;;2.25;0.50;;;;;;;5.82;100.00;96665.88;5056918;28;20029;-73
2023/11/17 04:17:38;;;;;;;0.70;0.60;;;;;;;5.81;100.00;96663.50;5059854;28;20040;-72
2023/11/17 04:20:05;;;;;;;0.55;0.55;;;;;;;5.67;100.00;96661.88;5057744;28;20032;-72
2023/11/17 04:22:31;;;;;;;0.52;0.50;;;;;;;5.48;100.00;96664.31;5061119;28;20110;-73
2023/11/17 04:24:59;;;;;;;0.60;0.60;;;;;;;5.50;100.00;96678.34;5062238;28;20036;-72
2023/11/17 04:27:24;;;;;;;0.70;0.70;;;;;;;5.46;100.00;96680.16;5055600;28;20079;-74
2023/11/17 04:29:50;;;;;;;0.98;0.63;;;;;;;5.47;100.00;96674.34;5060139;28;20048;-74
2023/11/17 04:32:15;;;;;;;0.57;0.57;;;;;;;5.45;100.00;96682.06;5055833;28;20033;-72
2023/11/17 04:34:40;;;;;;;0.60;0.60;;;;;;;5.49;100.00;96680.28;5060846;28;20040;-72
2023/11/17 04:37:08;;;;;;;0.80;0.80;;;;;;;5.49;100.00;96677.56;5049195;28;20450;-73
2023/11/17 04:39:34;;;;;;;0.85;0.60;;;;;;;5.49;100.00;96680.28;5057347;28;20048;-72
2023/11/17 04:41:59;;;;;;;0.50;0.50;;;;;;;5.40;100.00;96676.81;5061498;28;20047;-72
2023/11/17 04:44:25;;;;;;;0.77;0.77;;;;;;;5.53;100.00;96677.69;5038010;28;20048;-72
2023/11/17 04:46:50;;;;;;;0.70;0.70;;;;;;;5.48;100.00;96691.47;5061151;28;20040;-73
2023/11/17 04:49:16;;;;;;;0.82;0.75;;;;;;;5.43;100.00;96697.09;5048724;28;20241;-74
2023/11/17 04:51:48;;;;;;;0.57;0.57;;;;;;;5.33;100.00;96687.44;5059896;28;20040;-72
2023/11/17 04:54:15;;;;;;;0.60;0.60;;;;;;;5.42;100.00;96696.31;5055780;28;20103;-74
2023/11/17 04:56:41;;;;;;;1.27;0.75;;;;;;;5.34;100.00;96697.19;5062626;28;20456;-72
2023/11/17 04:59:10;;;;;;;2.47;0.80;;;;;;;5.27;100.00;96699.63;5077822;28;20046;-73
2023/11/17 05:01:36;;;;;;;3.73;0.60;;;;;;;5.28;100.00;96707.44;5080240;28;20208;-73
2023/11/17 05:04:01;;;;;;;0.70;0.70;;;;;;;5.38;100.00;96706.25;5074512;28;20386;-73
2023/11/17 05:06:27;;;;;;;0.60;0.60;;;;;;;5.23;100.00;96710.34;5060285;28;20044;-74
2023/11/17 05:08:53;;;;;;;1.05;0.60;;;;;;;5.23;100.00;96713.06;5060893;28;20037;-74
2023/11/17 05:11:21;;;;;;;0.52;0.52;;;;;;;5.38;100.00;96722.53;5055899;28;20047;-74
2023/11/17 05:13:46;;;;;;;0.60;0.60;;;;;;;5.30;100.00;96726.13;5041493;28;20056;-73
2023/11/17 05:16:14;;;;;;;0.68;0.68;;;;;;;5.32;100.00;96727.38;5048513;28;20087;-72
2023/11/17 05:18:40;;;;;;;0.63;0.60;;;;;;;5.36;100.00;96731.00;5056881;28;20136;-70
2023/11/17 05:21:08;;;;;;;0.63;0.63;;;;;;;5.29;100.00;96729.97;5054513;28;20454;-71
2023/11/17 05:23:38;;;;;;;0.60;0.60;;;;;;;5.30;100.00;96726.13;5058947;28;20051;-72
2023/11/17 05:26:04;;;;;;;;;;;;;;;5.39;100.00;96732.28;5056678;28;20048;-71
2023/11/17 05:28:29;;;;;;;1.23;0.70;;;;;;;5.38;100.00;96725.25;5059273;28;20279;-72
2023/11/17 05:31:01;;;;;;;0.70;0.70;;;;;;;5.29;100.00;96730.75;5038276;28;20454;-73
2023/11/17 05:33:27;;;;;;;0.60;0.60;;;;;;;5.22;100.00;96732.41;5032930;28;20040;-71
2023/11/17 05:35:52;;;;;;;0.60;0.60;;;;;;;5.20;100.00;96731.94;5058909;28;20422;-72
2023/11/17 05:38:17;;;;;;;1.05;0.68;;;;;;;5.20;100.00;96735.44;5047770;28;20036;-70
2023/11/17 05:40:44;;;;;;;2.13;1.10;;;;;;;5.21;100.00;96737.06;5049973;28;20045;-71
2023/11/17 05:43:09;;;;;;;2.45;1.23;;;;;;;5.13;100.00;96738.72;5039729;28;20457;-71
2023/11/17 05:45:35;;;;;;;3.60;1.30;;;;;;;5.27;100.00;96737.66;5055694;28;20157;-73
2023/11/17 05:48:02;;;;;;;1.10;1.00;;;;;;;5.27;100.00;96746.59;5056731;28;20037;-71
2023/11/17 05:50:27;;;;;;;1.00;0.90;;;;;;;5.25;100.00;96746.13;5036229;28;20083;-72
2023/11/17 05:52:52;;;;;;;1.00;0.80;;;;;;;5.13;100.00;96755.00;5061679;28;20060;-74
2023/11/17 05:55:18;;;;;;;0.93;0.82;;;;;;;5.18;100.00;96756.72;5047962;28;20586;-73
2023/11/17 05:57:44;;;;;;;0.70;0.70;;;;;;;5.24;100.00;96755.41;5059937;28;20102;-73
2023/11/17 06:00:13;;;;;;;0.80;0.70;;;;;;;5.20;100.00;96762.59;5033878;28;20036;-73
2023/11/17 06:02:40;;;;;;;0.90;0.90;;;;;;;5.26;100.00;96758.59;5063380;28;20040;-74
2023/11/17 06:05:08;;;;;;;1.10;1.00;;;;;;;5.20;100.00;96762.59;5057869;28;20041;-72
2023/11/17 06:07:34;;;;;;;0.93;0.70;;;;;;;5.14;100.00;96762.00;5064746;28;20070;-71
2023/11/17 06:09:59;;;;;;;1.40;0.70;;;;;;;5.14;100.00;96762.00;5059495;28;20758;-71
2023/11/17 06:12:26;;;;;;;0.85;0.63;;;;;;;5.19;100.00;96760.25;5056957;28;20049;-70
2023/11/17 06:14:51;;;;;;;0.73;0.60;;;;;;;4.89;100.00;96765.69;5044929;28;20040;-70
2023/11/17 06:17:17;;;;;;;1.85;0.60;;;;;;;4.88;100.00;96774.94;5071150;28;20402;-72
2023/11/17 06:19:42;;;;;;;1.08;0.60;;;;;;;5.00;100.00;96775.03;5057610;28;20037;-73
2023/11/17 06:22:07;;;;;;;1.77;0.65;;;;;;;5.05;100.00;96787.63;5056621;28;20037;-70
2023/11/17 06:24:33;;;;;;;2.05;0.70;;;;;;;5.16;100.00;96786.13;5063172;28;20047;-70
2023/11/17 06:26:59;;;;;;;2.35;0.70;;;;;;;5.10;100.00;96793.66;5055679;28;20483;-71
2023/11/17 06:29:25;;;;;;;1.30;0.70;;;;;;;4.91;100.00;96796.78;5039512;28;20052;-70
2023/11/17 06:31:51;;;;;;;0.73;0.73;;;;;;;4.76;100.00;96798.16;5062735;28;20656;-72
2023/11/17 06:34:18;;;;;;;1.70;1.08;;;;;;;4.75;100.00;96785.72;5051608;28;20069;-72
2023/11/17 06:36:44;;;;;;;0.70;0.70;;;;;;;4.71;100.00;96797.53;5042147;28;20094;-73
2023/11/17 06:39:18;;;;;;;2.53;1.33;;;;;;;4.68;100.00;96803.59;5044021;28;20033;-71
2023/11/17 06:41:48;;;;;;;0.88;0.70;;;;;;;4.59;100.00;96806.34;5042781;28;20059;-71
2023/11/17 06:44:15;;;;;;;2.40;0.73;;;;;;;4.53;100.00;96811.16;5052934;28;20044;-71
2023/11/17 06:46:41;;;;;;;1.52;0.90;;;;;;;4.51;100.00;96816.13;5062505;28;20451;-71
2023/11/17 06:49:14;;;;;;;1.15;0.80;;;;;;;4.45;100.00;96812.00;5057828;28;20050;-71
2023/11/17 06:51:43;;;;;;;2.30;0.60;;;;;;;4.43;100.00;96813.41;5053983;28;20045;-72
2023/11/17 06:54:13;;;;;;;3.67;0.70;;;;;;;4.40;100.00;96815.66;5053222;28;20044;-72
2023/11/17 06:56:41;;;;;;;0.70;0.68;;;;;;;4.41;100.00;96808.31;5059761;28;20040;-72
2023/11/17 06:59:17;;;;;;;1.52;0.70;;;;;;;4.56;100.00;96817.88;5056313;28;20124;-71
2023/11/17 07:01:43;;;;;;;1.58;0.80;;;;;;;4.83;100.00;96824.00;5054135;28;20401;-72
2023/11/17 07:04:12;;;;;;;1.85;0.80;;;;;;;4.89;100.00;96826.19;5062233;28;20067;-71
2023/11/17 07:06:39;;;;;;;0.77;0.77;;;;;;;4.65;100.00;96821.34;5057402;28;20623;-71
2023/11/17 07:09:19;;;;;;;26.65;4.03;;;;;;;4.67;100.00;96831.88;5060603;28;20044;-73
2023/11/17 07:11:52;;;;;;;1.73;1.10;;;;;;;4.70;100.00;96834.72;5066984;28;20064;-72
2023/11/17 07:14:21;;;;;;;2.55;1.42;;;;;;;4.72;100.00;96840.63;5066711;28;20098;-73
2023/11/17 07:16:48;;;;;;;;;;;;;;;4.63;100.00;96833.63;5056555;28;20183;-73
2023/11/17 07:19:16;;;;;;;4.35;2.33;;;;;;;4.61;100.00;96844.81;5064677;28;19916;-72
2023/11/17 07:21:42;;;;;;;2.30;1.60;;;;;;;4.70;100.00;96848.28;5062422;28;20048;-72
2023/11/17 07:24:10;;;;;;;2.28;1.25;;;;;;;4.80;100.00;96849.84;5058320;28;20653;-73
2023/11/17 07:26:36;;;;;;;1.25;0.90;;;;;;;4.85;100.00;96855.09;5061531;28;20040;-73
2023/11/17 07:29:02;;;;;;;1.98;1.00;;;;;;;4.90;100.00;96863.06;5059286;28;20037;-74
2023/11/17 07:31:29;;;;;;;2.40;1.60;;;;;;;5.08;100.00;96861.06;5051619;28;20040;-71
2023/11/17 07:33:55;;;;;;;1.10;0.80;;;;;;;5.21;100.00;96861.97;5062329;28;20072;-75
2023/11/17 07:36:21;;;;;;;3.63;0.90;;;;;;;5.22;100.00;96868.19;5042987;28;20067;-72
2023/11/17 07:38:55;;;;;;;3.17;1.15;;;;;;;5.13;100.00;96870.94;5044282;28;20100;-74
2023/11/17 07:41:21;;;;;;;1.67;0.82;;;;;;;5.10;100.00;96864.25;5058703;28;20048;-73
2023/11/17 07:43:48;;;;;;;1.77;0.90;;;;;;;5.01;100.00;96870.84;5069850;28;20136;-74
2023/11/17 07:46:13;;;;;;;2.13;0.75;;;;;;;4.95;100.00;96876.47;5066162;28;20055;-73
2023/11/17 07:48:43;;;;;;;1.95;1.27;;;;;;;4.92;100.00;96879.03;5044157;28;20040;-73
2023/11/17 07:51:09;;;;;;;3.03;1.63;;;;;;;4.94;100.00;96876.78;5057480;28;20044;-74
2023/11/17 07:53:35;;;;;;;3.25;1.30;;;;;;;4.83;100.00;96884.47;5064373;28;20457;-73
2023/11/17 07:56:00;;;;;;;1.98;1.30;;;;;;;4.69;100.00;96881.19;5053909;28;20108;-73
2023/11/17 07:58:26;;;;;;;2.95;1.98;;;;;;;4.55;100.00;96893.00;5056663;28;20059;-73
2023/11/17 08:00:54;;;;;;;3.00;1.92;;;;;;;4.73;100.00;96890.25;5062134;28;20040;-73
2023/11/17 08:03:20;;;;;;;2.63;1.40;;;;;;;5.03;100.00;96893.03;5039347;28;20674;-73
2023/11/17 08:05:46;;;;;;;1.33;1.00;;;;;;;5.04;100.00;96900.03;5035203;28;20044;-74
2023/11/17 08:08:14;;;;;;;0.85;0.70;;;;;;;5.17;100.00;96901.75;5061680;28;20074;-72
2023/11/17 08:10:40;;;;;;;1.00;0.80;;;;;;;5.16;100.00;96903.66;5045925;28;20047;-71
2023/11/17 08:13:05;;;;;;;0.60;0.60;;;;;;;5.26;100.00;96907.94;5061160;28;20499;-72
2023/11/17 08:15:31;;;;;;;0.68;0.60;;;;;;;5.17;100.00;96909.91;5043092;28;20044;-72
2023/11/17 08:17:57;;;;;;;0.75;0.70;;;;;;;5.34;100.00;96917.16;5058234;28;20040;-73
2023/11/17 08:20:22;;;;;;;1.65;1.05;;;;;;;5.20;100.00;96917.38;5062080;28;20804;-73
2023/11/17 08:22:51;;;;;;;1.25;0.75;;;;;;;5.19;100.00;96917.72;5065812;28;20052;-73
2023/11/17 08:25:17;;;;;;;1.65;1.00;;;;;;;5.31;100.00;96923.25;5061641;28;20032;-72
2023/11/17 08:27:43;;;;;;;1.67;0.85;;;;;;;5.28;100.00;96916.56;5064838;28;20044;-72
2023/11/17 08:30:10;;;;;;;2.40;1.42;;;;;;;5.27;100.00;96925.03;5045882;28;20437;-73
2023/11/17 08:32:39;;;;;;;3.97;1.17;;;;;;;5.35;100.00;96929.63;5050827;28;20064;-72
2023/11/17 08:35:07;;;;;;;1.27;0.90;;;;;;;5.42;100.00;96921.78;5045603;28;20041;-72
2023/11/17 08:37:32;;;;;;;2.88;1.50;;;;;;;5.41;100.00;96931.03;5058933;28;20416;-71
2023/11/17 08:40:08;;;;;;;1.83;0.93;;;;;;;5.51;100.00;96925.25;5070474;28;20071;-71
2023/11/17 08:42:35;;;;;;;1.73;1.20;;;;;;;5.64;100.00;96936.22;5067361;28;20051;-73
2023/11/17 08:45:07;;;;;;;1.48;1.00;;;;;;;5.73;100.00;96926.88;5065515;28;20397;-71
2023/11/17 08:47:38;;;;;;;1.27;0.88;;;;;;;5.87;100.00;96939.41;5073331;28;20058;-71
2023/11/17 08:50:06;;;;;;;1.20;0.80;;;;;;;5.90;100.00;96936.81;5052657;28;20104;-72
2023/11/17 08:52:34;;;;;;;0.70;0.70;;;;;;;5.88;100.00;96938.28;5060331;28;20032;-71
2023/11/17 08:55:07;;;;;;;1.60;1.02;;;;;;;5.90;100.00;96944.19;5070307;28;20048;-71
2023/11/17 08:57:36;;;;;;;3.90;1.60;;;;;;;5.93;100.00;96940.81;5050811;28;20040;-71
2023/11/17 09:00:11;;;;;;;4.10;1.52;;;;;;;6.01;100.00;96939.19;5064946;28;20039;-73
2023/11/17 09:02:49;;;;;;;4.55;2.30;;;;;;;6.07;100.00;96951.47;5064464;28;20446;-73
2023/11/17 09:05:15;;;;;;;2.67;1.70;;;;;;;6.07;100.00;96948.75;5052816;28;20040;-72
2023/11/17 09:07:45;;;;;;;2.33;1.50;;;;;;;6.00;100.00;96946.56;5068011;28;20044;-72
2023/11/17 09:10:16;;;;;;;1.67;1.20;;;;;;;5.99;100.00;96953.09;5047353;28;20112;-72
2023/11/17 09:12:42;;;;;;;1.33;1.10;;;;;;;6.04;100.00;96957.56;5055900;28;20048;-71
2023/11/17 09:15:18;;;;;;;1.27;1.02;;;;;;;6.04;100.00;96961.06;5038665;28;20033;-71
2023/11/17 09:17:47;;;;;;;0.80;0.80;;;;;;;6.09;100.00;96966.31;5060768;28;20048;-73
2023/11/17 09:20:14;;;;;;;1.52;0.90;;;;;;;6.11;100.00;96966.00;5058912;28;20102;-71
2023/11/17 09:22:43;;;;;;;1.67;0.88;;;;;;;6.09;100.00;96970.97;5045447;28;20340;-71
2023/11/17 09:25:13;;;;;;;1.67;1.33;;;;;;;6.16;100.00;96965.81;5047576;28;20084;-72
2023/11/17 09:27:40;;;;;;;1.65;0.80;;;;;;;6.27;100.00;96974.38;5078455;28;20037;-72
2023/11/17 09:30:06;;;;;;;1.50;0.80;;;;;;;6.35;100.00;96968.03;5075988;28;20033;-72
2023/11/17 09:32:32;;;;;;;2.40;1.00;;;;;;;6.45;100.00;96967.66;5057116;28;20048;-73
2023/11/17 09:34:57;;;;;;;1.13;0.88;;;;;;;6.42;100.00;96976.47;5062697;28;20106;-73
2023/11/17 09:37:23;;;;;;;1.85;0.93;;;;;;;6.48;100.00;96977.06;5047648;28;20044;-72
2023/11/17 09:39:48;;;;;;;1.92;0.93;;;;;;;6.39;100.00;96974.44;5060733;28;20123;-72
2023/11/17 09:42:15;;;;;;;1.02;0.90;;;;;;;6.24;100.00;96977.75;5040839;28;20041;-73
2023/11/17 09:44:42;;;;;;;0.80;0.80;;;;;;;6.28;100.00;96984.09;5060031;28;20060;-72
2023/11/17 09:47:21;;;;;;;1.00;0.90;;;;;;;6.29;100.00;96977.53;5032706;28;20069;-72
2023/11/17 09:49:49;;;;;;;1.30;0.98;;;;;;;6.22;100.00;96975.34;5063010;28;20054;-75
2023/11/17 09:52:18;;;;;;;3.08;2.00;;;;;;;6.28;100.00;96984.09;5045456;28;20036;-72
2023/11/17 09:54:45;;;;;;;1.45;0.90;;;;;;;6.38;100.00;96980.22;5065244;28;20083;-72
2023/11/17 09:57:13;;;;;;;5.22;1.63;;;;;;;6.48;100.00;96977.88;5059970;28;20135;-72
2023/11/17 09:59:42;;;;;;;1.92;1.00;;;;;;;6.46;100.00;96985.59;5067317;28;20116;-71
2023/11/17 10:02:10;;;;;;;;;;;;;;;6.44;100.00;96981.59;5054667;28;20037;-73
2023/11/17 10:04:37;;;;;;;2.05;1.13;;;;;;;6.46;100.00;96987.50;5051873;28;20519;-72
2023/11/17 10:07:05;;;;;;;1.77;0.82;;;;;;;6.56;100.00;96986.31;5069937;28;20585;-73
2023/11/17 10:09:32;;;;;;;2.42;1.23;;;;;;;6.53;100.00;96995.13;5068593;28;20132;-73
2023/11/17 10:11:59;;;;;;;1.17;0.90;;;;;;;6.56;100.00;96984.38;5080804;28;20037;-71
2023/11/17 10:14:26;;;;;;;1.95;1.23;;;;;;;6.63;100.00;96992.78;5054704;28;20572;-70
2023/11/17 10:16:54;;;;;;;2.08;0.95;;;;;;;6.69;100.00;96987.94;5058450;28;20038;-72
2023/11/17 10:19:20;;;;;;;1.52;0.90;;;;;;;6.76;100.00;96990.91;5056398;28;20525;-72
2023/11/17 10:21:47;;;;;;;1.08;0.80;;;;;;;6.80;100.00;96983.66;5038436;28;20040;-72
2023/11/17 10:24:13;;;;;;;1.73;1.02;;;;;;;6.84;100.00;96989.22;5066126;28;20047;-73
2023/11/17 10:26:39;;;;;;;1.40;0.90;;;;;;;6.91;100.00;96992.22;5052014;28;20041;-72
2023/11/17 10:29:06;;;;;;;3.05;0.90;;;;;;;6.87;100.00;96991.28;5057293;28;20103;-72
2023/11/17 10:31:40;;;;;;;1.83;0.90;;;;;;;6.75;100.00;96986.59;5076624;28;20115;-72
2023/11/17 10:34:13;;;;;;;2.30;1.13;;;;;;;6.63;100.00;96990.06;5079611;28;20040;-72
2023/11/17 10:36:59;;;;;;;1.38;1.00;;;;;;;6.63;100.00;96994.72;5065879;28;20040;-71
2023/11/17 10:39:25;;;;;;;1.83;1.00;;;;;;;6.70;100.00;96997.72;5078166;23;20068;-67
2023/11/17 10:41:53;;;;;;;1.33;1.08;;;;;;;6.77;100.00;96989.78;5080378;28;20052;-69
2023/11/17 10:44:32;;;;;;;1.83;0.90;;;;;;;6.67;100.00;96987.47;5074992;28;20059;-66
2023/11/17 10:47:04;;;;;;;1.70;1.00;;;;;;;6.58;100.00;96990.28;5078940;28;20133;-67
2023/11/17 10:49:32;;;;;;;1.13;0.95;;;;;;;6.65;100.00;96987.81;5078573;28;20135;-67
2023/11/17 10:51:57;;;;;;;1.35;1.05;;;;;;;6.57;100.00;96985.16;5077420;28;20448;-66
2023/11/17 10:54:23;;;;;;;1.83;0.85;;;;;;;6.57;100.00;96996.03;5076988;28;20048;-68
2023/11/17 10:56:49;;;;;;;1.17;0.80;;;;;;;6.50;100.00;96991.94;5066067;28;20189;-68
2023/11/17 10:59:18;;;;;;;1.60;1.00;;;;;;;6.53;100.00;96984.25;5078147;28;20040;-69
2023/11/17 11:01:47;;;;;;;1.50;0.80;;;;;;;6.41;100.00;96991.22;5059170;28;20076;-68
2023/11/17 11:04:25;;;;;;;4.32;1.10;;;;;;;6.39;100.00;96993.47;5059840;28;20398;-69
2023/11/17 11:06:54;;;;;;;4.28;1.30;;;;;;;6.46;100.00;96987.50;5083777;28;20040;-68
2023/11/17 11:09:29;;;;;;;;;;;;;;;6.46;100.00;96977.41;5079751;28;20047;-69
2023/11/17 11:11:54;;;;;;;2.65;1.35;;;;;;;6.47;100.00;96989.88;5081886;28;19923;-67
2023/11/17 11:14:21;;;;;;;2.80;1.40;;;;;;;6.44;100.00;96984.31;5080415;28;20040;-68
2023/11/17 11:16:47;;;;;;;2.03;1.30;;;;;;;6.52;100.00;96991.63;5083148;28;20185;-68
2023/11/17 11:19:15;;;;;;;3.83;1.48;;;;;;;6.55;100.00;96984.69;5078217;28;20075;-68
2023/11/17 11:21:42;;;;;;;2.33;1.23;;;;;;;6.76;100.00;96992.84;5083441;28;20520;-67
2023/11/17 11:24:08;;;;;;;4.47;1.40;;;;;;;6.83;100.00;96984.94;5078109;28;20186;-70
2023/11/17 11:26:38;;;;;;;2.42;1.30;;;;;;;6.78;100.00;96990.59;5083228;28;20112;-67
2023/11/17 11:29:05;;;;;;;6.45;2.70;;;;;;;6.52;100.00;96986.16;5080333;28;20048;-67
2023/11/17 11:31:32;;;;;;;8.35;3.67;;;;;;;6.48;100.00;96990.66;5083072;28;20048;-67
2023/11/17 11:33:58;;;;;;;4.60;1.95;;;;;;;6.62;100.00;96985.75;5074049;28;20078;-67
2023/11/17 11:36:24;;;;;;;2.45;1.40;;;;;;;6.40;100.00;96983.38;5046290;28;20744;-68
2023/11/17 11:38:50;;;;;;;2.72;1.02;;;;;;;6.44;100.00;96987.03;5080757;28;20040;-67